Homer, AK

2:05 PM AKDT on August 27, 2015 (GMT -0800)
Homer | | Change Station
CLOSE
Current Station
Airport
Location: Homer,
Elevation: 82 ft
Nearby Weather Stations

Elev 82 ft 59.65 °N, 151.48 °W | Updated 12 minutes ago

Clear
Clear
61 °F
Feels Like 61 °F
N
17
Wind Variable Wind from West
Gusts 24 mph

Today
High -- | Low -- °F
--% Chance of Precip.
Yesterday
High -- | Low -- °F
Precip. -- in
6:50 AM 9:23 PM
Waxing Gibbous, 95% visible
Pressure 29.77 in
Visibility 10.0 miles
Clouds Clear
Dew Point 45 °F
Humidity 56%
Rainfall 0.00 in
Snow Depth Not available.
UV 5 out of 12
Pollen Not available.
Air Quality Not available.
Flu Activity Not available.
METAR PAHO 272153Z 26015G21KT 10SM CLR 16/07 A2977 RMK SLP080 T01610072 $ VIA AUTODIAL
Pressure 29.77 in
Visibility 10.0 miles
Clouds Clear
Dew Point 45 °F
Humidity 56%
Rainfall 0.00 in
Snow Depth Not available.
UV 5 out of 12
Pollen Not available.
Air Quality Not available.
Flu Activity Not available.
METAR PAHO 272153Z 26015G21KT 10SM CLR 16/07 A2977 RMK SLP080 T01610072 $ VIA AUTODIAL

10-Day Weather Forecast

×

Almanac

Astronomy

Aug. 27, 2015 Rise Set
Actual Time
Civil Twilight
Nautical Twilight
Astronomical Twilight
Moon
Length of Visible Light
Length of Day
Tomorrow will be .
, % of the Moon is Illuminated

Today's Extremes

State Highs State Lows

Community

WunderPhotos

Upload Photos

1,850,246 photos uploaded!

WunderBlogs® & News

Nearby

Air Quality

  Air Quality AQ Index Pollutant
Not available.

Snow Depth

Station Depth Elevation

Earthquake Activity

City Distance Mag. Time & Date
Minimum magnitude displayed is 2.5.

Coastal Water Temperatures

Place Temperature

Stations

Nearby Weather Stations

Station Location Temp. Windchill Dew Point Humidity Wind Precip. Elev Updated Type